createdAt,value
2023-01-09T00:01:16.352Z,8.72
2023-01-09T00:03:44.333Z,8.67
2023-01-09T00:06:13.353Z,8.70
2023-01-09T00:08:41.283Z,8.57
2023-01-09T00:11:09.422Z,8.66
2023-01-09T00:13:37.861Z,8.47
2023-01-09T00:16:06.198Z,8.40
2023-01-09T00:18:34.344Z,8.47
2023-01-09T00:21:02.654Z,8.49
2023-01-09T00:23:31.804Z,8.39
2023-01-09T00:26:04.295Z,8.41
2023-01-09T00:28:32.262Z,8.57
2023-01-09T00:31:01.565Z,8.43
2023-01-09T00:33:30.965Z,8.55
2023-01-09T00:35:58.679Z,8.50
2023-01-09T00:38:26.538Z,8.62
2023-01-09T00:40:56.554Z,8.56
2023-01-09T00:43:29.326Z,8.59
2023-01-09T00:45:57.076Z,8.56
2023-01-09T00:48:26.992Z,8.57
2023-01-09T00:50:56.949Z,8.54
2023-01-09T00:53:28.629Z,8.61
2023-01-09T00:56:00.567Z,8.52
2023-01-09T00:58:28.388Z,8.51
2023-01-09T01:00:56.436Z,8.69
2023-01-09T01:03:24.114Z,8.67
2023-01-09T01:06:09.457Z,8.71
2023-01-09T01:08:37.471Z,8.66
2023-01-09T01:11:09.174Z,8.63
2023-01-09T01:13:37.074Z,8.64
2023-01-09T01:16:05.503Z,8.67
2023-01-09T01:18:33.487Z,8.70
2023-01-09T01:21:01.452Z,8.67
2023-01-09T01:23:29.223Z,8.58
2023-01-09T01:25:56.901Z,8.66
2023-01-09T01:28:25.901Z,8.70
2023-01-09T01:30:53.585Z,8.74
2023-01-09T01:33:21.297Z,8.75
2023-01-09T01:35:48.909Z,8.80
2023-01-09T01:38:16.600Z,8.81
2023-01-09T01:40:44.260Z,8.68
2023-01-09T01:43:13.393Z,8.58
2023-01-09T01:45:42.858Z,8.70
2023-01-09T01:48:13.785Z,8.77
2023-01-09T01:50:45.715Z,8.80
2023-01-09T01:53:17.260Z,8.54
2023-01-09T01:55:54.804Z,8.60
2023-01-09T01:58:22.616Z,8.62
2023-01-09T02:00:51.618Z,8.61
2023-01-09T02:03:23.204Z,8.56
2023-01-09T02:05:50.960Z,8.52
2023-01-09T02:08:19.183Z,8.52
2023-01-09T02:10:47.389Z,8.48
2023-01-09T02:13:15.758Z,8.51
2023-01-09T02:15:59.121Z,8.62
2023-01-09T02:18:42.214Z,8.45
2023-01-09T02:21:19.157Z,8.51
2023-01-09T02:24:08.545Z,8.59
2023-01-09T02:27:08.815Z,8.59
2023-01-09T02:30:09.352Z,8.55
2023-01-09T02:32:57.556Z,8.62
2023-01-09T02:35:35.912Z,8.53
2023-01-09T02:38:18.305Z,8.63
2023-01-09T02:40:54.464Z,8.59
2023-01-09T02:43:22.568Z,8.63
2023-01-09T02:45:50.295Z,8.52
2023-01-09T02:48:19.462Z,8.46
2023-01-09T02:51:00.341Z,8.47
2023-01-09T02:53:49.762Z,8.55
2023-01-09T02:56:54.755Z,8.53
2023-01-09T02:59:28.228Z,8.34
2023-01-09T03:02:14.324Z,8.42
2023-01-09T03:04:54.387Z,8.35
2023-01-09T03:07:25.994Z,8.64
2023-01-09T03:09:59.743Z,8.49
2023-01-09T03:12:32.540Z,8.45
2023-01-09T03:15:02.738Z,8.51
2023-01-09T03:17:37.250Z,8.51
2023-01-09T03:20:10.189Z,8.55
2023-01-09T03:22:40.202Z,8.52
2023-01-09T03:25:08.405Z,8.59
2023-01-09T03:27:36.210Z,8.63
2023-01-09T03:30:04.031Z,8.50
2023-01-09T03:32:31.668Z,8.46
2023-01-09T03:35:01.445Z,8.47
2023-01-09T03:37:30.716Z,8.46
2023-01-09T03:39:58.369Z,8.52
2023-01-09T03:42:25.975Z,8.46
2023-01-09T03:44:53.646Z,8.28
2023-01-09T03:47:21.241Z,8.23
2023-01-09T03:49:48.931Z,8.25
2023-01-09T03:52:16.596Z,8.32
2023-01-09T03:54:45.539Z,8.40
2023-01-09T03:57:13.184Z,8.28
2023-01-09T03:59:40.983Z,8.28
2023-01-09T04:02:08.835Z,8.46
2023-01-09T04:04:36.616Z,8.50
2023-01-09T04:07:04.263Z,8.42
2023-01-09T04:09:32.045Z,8.41
2023-01-09T04:12:01.209Z,8.27
2023-01-09T04:14:28.900Z,8.37
2023-01-09T04:16:56.605Z,8.32
2023-01-09T04:19:24.209Z,8.26
2023-01-09T04:21:51.873Z,8.25
2023-01-09T04:24:19.727Z,8.24
2023-01-09T04:26:47.343Z,8.23
2023-01-09T04:29:16.353Z,8.26
2023-01-09T04:31:44.118Z,8.16
2023-01-09T04:34:11.816Z,8.23
2023-01-09T04:36:40.078Z,8.25
2023-01-09T04:39:07.693Z,8.24
2023-01-09T04:41:50.711Z,7.91
2023-01-09T04:44:22.306Z,7.34
2023-01-09T04:46:50.017Z,8.03
2023-01-09T04:49:17.693Z,8.10
2023-01-09T04:51:45.385Z,8.01
2023-01-09T04:54:13.171Z,8.13
2023-01-09T04:56:40.902Z,8.02
2023-01-09T04:59:09.247Z,8.00
2023-01-09T05:01:38.426Z,7.97
2023-01-09T05:04:06.827Z,7.86
2023-01-09T05:06:35.207Z,7.85
2023-01-09T05:09:02.948Z,7.92
2023-01-09T05:11:30.669Z,7.84
2023-01-09T05:13:58.614Z,7.85
2023-01-09T05:16:26.307Z,7.61
2023-01-09T05:18:57.115Z,7.69
2023-01-09T05:21:25.104Z,7.73
2023-01-09T05:23:53.089Z,7.77
2023-01-09T05:26:23.823Z,7.73
2023-01-09T05:28:51.900Z,7.78
2023-01-09T05:31:19.988Z,7.84
2023-01-09T05:33:48.036Z,7.91
2023-01-09T05:36:17.075Z,7.68
2023-01-09T05:38:44.729Z,7.67
2023-01-09T05:41:12.673Z,7.65
2023-01-09T05:43:40.628Z,7.75
2023-01-09T05:46:08.318Z,7.71
2023-01-09T05:48:37.792Z,7.79
2023-01-09T05:51:05.620Z,7.76
2023-01-09T05:53:34.661Z,7.81
2023-01-09T05:56:02.424Z,7.69
2023-01-09T05:58:30.352Z,7.52
2023-01-09T06:00:59.639Z,7.43
2023-01-09T06:03:27.372Z,7.35
2023-01-09T06:05:55.077Z,7.28
2023-01-09T06:08:22.792Z,7.45
2023-01-09T06:10:51.831Z,7.43
2023-01-09T06:13:19.501Z,7.50
2023-01-09T06:15:48.756Z,7.40
2023-01-09T06:18:16.887Z,7.43
2023-01-09T06:20:45.341Z,7.37
2023-01-09T06:23:13.755Z,7.38
2023-01-09T06:25:42.077Z,7.36
2023-01-09T06:28:11.527Z,7.28
2023-01-09T06:30:39.280Z,7.36
2023-01-09T06:33:06.914Z,7.36
2023-01-09T06:35:34.558Z,7.30
2023-01-09T06:38:03.383Z,7.32
2023-01-09T06:40:31.107Z,7.20
2023-01-09T06:42:58.756Z,7.24
2023-01-09T06:45:27.778Z,7.04
2023-01-09T06:47:55.534Z,6.99
2023-01-09T06:50:23.175Z,7.05
2023-01-09T06:52:50.862Z,7.03
2023-01-09T06:55:18.879Z,6.95
2023-01-09T06:57:46.603Z,7.04
2023-01-09T07:00:14.944Z,7.10
2023-01-09T07:02:44.065Z,6.88
2023-01-09T07:05:12.467Z,6.95
2023-01-09T07:07:41.133Z,6.47
2023-01-09T07:10:11.376Z,6.92
2023-01-09T07:12:39.032Z,7.05
2023-01-09T07:15:07.736Z,6.97
2023-01-09T07:17:35.485Z,6.78
2023-01-09T07:20:05.319Z,6.92
2023-01-09T07:22:33.021Z,6.83
2023-01-09T07:25:00.856Z,6.89
2023-01-09T07:27:28.713Z,7.00
2023-01-09T07:29:56.386Z,6.93
2023-01-09T07:32:24.001Z,6.97
2023-01-09T07:34:51.620Z,6.90
2023-01-09T07:37:20.570Z,7.03
2023-01-09T07:39:48.353Z,6.89
2023-01-09T07:42:16.721Z,6.94
2023-01-09T07:44:44.380Z,6.92
2023-01-09T07:47:12.059Z,7.05
2023-01-09T07:49:40.271Z,6.88
2023-01-09T07:52:07.943Z,6.97
2023-01-09T07:54:37.116Z,6.83
2023-01-09T07:57:05.053Z,6.88
2023-01-09T07:59:32.958Z,7.00
2023-01-09T08:02:02.191Z,7.09
2023-01-09T08:04:29.893Z,7.02
2023-01-09T08:06:57.818Z,7.13
2023-01-09T08:09:25.517Z,7.21
2023-01-09T08:11:56.890Z,7.10
2023-01-09T08:14:25.292Z,7.09
2023-01-09T08:16:52.983Z,7.21
2023-01-09T08:19:20.632Z,7.19
2023-01-09T08:21:48.314Z,7.31
2023-01-09T08:24:15.975Z,7.43
2023-01-09T08:26:43.691Z,7.46
2023-01-09T08:29:13.259Z,7.47
2023-01-09T08:31:40.985Z,7.58
2023-01-09T08:34:08.767Z,7.58
2023-01-09T08:36:36.512Z,7.87
2023-01-09T08:39:04.599Z,7.98
2023-01-09T08:41:50.113Z,8.13
2023-01-09T08:44:36.899Z,8.17
2023-01-09T08:47:07.459Z,8.18
2023-01-09T08:49:36.579Z,8.09
2023-01-09T08:52:05.356Z,8.09
2023-01-09T08:54:33.365Z,7.71
2023-01-09T08:57:01.017Z,7.86
2023-01-09T08:59:30.383Z,7.96
2023-01-09T09:01:58.303Z,7.67
2023-01-09T09:04:26.523Z,7.66
2023-01-09T09:06:54.321Z,7.78
2023-01-09T09:09:22.023Z,8.06
2023-01-09T09:11:49.726Z,8.13
2023-01-09T09:14:34.897Z,7.89
2023-01-09T09:17:04.264Z,7.89
2023-01-09T09:19:31.979Z,7.89
2023-01-09T09:21:59.610Z,7.88
2023-01-09T09:24:27.649Z,7.94
2023-01-09T09:26:55.378Z,7.87
2023-01-09T09:29:23.010Z,7.70
2023-01-09T09:31:50.702Z,7.84
2023-01-09T09:34:19.728Z,7.90
2023-01-09T09:36:47.648Z,8.05
2023-01-09T09:39:15.291Z,8.19
2023-01-09T09:42:19.438Z,8.26
2023-01-09T09:45:03.021Z,8.15
2023-01-09T09:47:43.351Z,8.12
2023-01-09T09:50:29.557Z,8.22
2023-01-09T09:53:03.317Z,8.30
2023-01-09T09:55:33.274Z,8.48
2023-01-09T09:58:03.626Z,8.47
2023-01-09T10:00:31.666Z,8.23
2023-01-09T10:03:04.551Z,8.25
2023-01-09T10:05:36.498Z,8.14
2023-01-09T10:08:15.793Z,8.12
2023-01-09T10:10:52.189Z,8.18
2023-01-09T10:13:38.926Z,8.16
2023-01-09T10:16:17.441Z,8.16
2023-01-09T10:19:00.982Z,8.06
2023-01-09T10:21:38.569Z,7.91
2023-01-09T10:24:27.952Z,7.83
2023-01-09T10:26:57.044Z,7.74
2023-01-09T10:29:57.033Z,7.23
2023-01-09T10:32:46.391Z,7.95
2023-01-09T10:35:39.289Z,7.91
2023-01-09T10:38:19.303Z,7.94
2023-01-09T10:40:52.299Z,8.01
2023-01-09T10:43:30.058Z,7.92
2023-01-09T10:46:03.379Z,7.67
2023-01-09T10:48:34.950Z,7.73
2023-01-09T10:51:06.643Z,7.61
2023-01-09T10:53:38.842Z,7.80
2023-01-09T10:56:14.330Z,7.71
2023-01-09T10:58:41.986Z,7.58
2023-01-09T11:01:10.619Z,7.87
2023-01-09T11:03:38.992Z,7.87
2023-01-09T11:06:20.816Z,7.67
2023-01-09T11:08:53.083Z,7.49
2023-01-09T11:11:33.965Z,7.42
2023-01-09T11:14:08.198Z,7.62
2023-01-09T11:16:36.301Z,7.92
2023-01-09T11:19:04.113Z,7.83
2023-01-09T11:21:35.894Z,7.79
2023-01-09T11:24:29.529Z,7.75
2023-01-09T11:27:23.312Z,7.58
2023-01-09T11:30:22.421Z,7.50
2023-01-09T11:32:50.421Z,7.74
2023-01-09T11:35:24.719Z,7.81
2023-01-09T11:38:03.655Z,7.93
2023-01-09T11:40:39.696Z,7.90
2023-01-09T11:43:16.535Z,8.10
2023-01-09T11:46:00.110Z,7.98
2023-01-09T11:48:39.111Z,8.00
2023-01-09T11:51:18.168Z,8.06
2023-01-09T11:54:13.321Z,8.15
2023-01-09T11:56:42.832Z,8.15
2023-01-09T11:59:13.606Z,7.92
2023-01-09T12:02:01.776Z,7.93
2023-01-09T12:04:34.414Z,7.68
2023-01-09T12:07:26.171Z,8.01
2023-01-09T12:10:04.308Z,7.74
2023-01-09T12:12:43.407Z,7.70
2023-01-09T12:15:25.899Z,7.53
2023-01-09T12:18:23.520Z,7.73
2023-01-09T12:21:02.402Z,7.78
2023-01-09T12:23:45.710Z,7.61
2023-01-09T12:26:18.779Z,7.74
2023-01-09T12:29:11.492Z,7.64
2023-01-09T12:32:00.719Z,7.71
2023-01-09T12:35:00.285Z,7.59
2023-01-09T12:37:46.700Z,7.52
2023-01-09T12:40:35.769Z,7.51
2023-01-09T12:43:13.429Z,7.53
2023-01-09T12:45:58.399Z,7.57
2023-01-09T12:48:59.337Z,7.46
2023-01-09T12:51:32.615Z,7.53
2023-01-09T12:54:05.536Z,7.58
2023-01-09T12:56:38.273Z,7.57
2023-01-09T12:59:21.663Z,7.59
2023-01-09T13:01:52.104Z,7.34
2023-01-09T13:04:25.157Z,7.43
2023-01-09T13:06:58.291Z,7.27
2023-01-09T13:09:28.331Z,7.48
2023-01-09T13:12:04.028Z,7.35
2023-01-09T13:14:46.942Z,7.31
2023-01-09T13:17:22.089Z,6.70
2023-01-09T13:19:49.728Z,7.32
2023-01-09T13:22:19.036Z,7.21
2023-01-09T13:25:07.514Z,7.28
2023-01-09T13:27:39.297Z,7.45
2023-01-09T13:30:18.925Z,7.40
2023-01-09T13:33:03.040Z,7.46
2023-01-09T13:35:30.765Z,7.33
2023-01-09T13:37:58.575Z,7.36
2023-01-09T13:40:30.180Z,7.41
2023-01-09T13:42:59.678Z,7.36
2023-01-09T13:45:30.187Z,7.28
2023-01-09T13:48:29.324Z,7.33
2023-01-09T13:51:30.794Z,7.41
2023-01-09T13:53:58.588Z,7.46
2023-01-09T13:56:26.361Z,7.53
2023-01-09T13:59:27.036Z,7.64
2023-01-09T14:01:54.795Z,7.70
2023-01-09T14:04:45.886Z,7.75
2023-01-09T14:07:22.346Z,7.81
2023-01-09T14:09:58.215Z,7.70
2023-01-09T14:12:27.331Z,7.57
2023-01-09T14:14:58.309Z,7.69
2023-01-09T14:17:32.072Z,7.72
2023-01-09T14:20:04.003Z,7.59
2023-01-09T14:22:42.557Z,7.61
2023-01-09T14:25:25.522Z,7.54
2023-01-09T14:28:18.319Z,7.46
2023-01-09T14:31:06.048Z,7.57
2023-01-09T14:33:33.887Z,7.63
2023-01-09T14:36:12.066Z,7.64
2023-01-09T14:38:43.404Z,7.37
2023-01-09T14:41:21.213Z,7.48
2023-01-09T14:44:01.354Z,7.50
2023-01-09T14:46:35.360Z,7.50
2023-01-09T14:49:08.255Z,7.32
2023-01-09T14:51:39.625Z,7.32
2023-01-09T14:54:23.066Z,7.43
2023-01-09T14:56:50.706Z,7.45
2023-01-09T14:59:18.627Z,7.50
2023-01-09T15:01:51.382Z,7.49
2023-01-09T15:04:31.556Z,7.39
2023-01-09T15:07:00.717Z,7.53
2023-01-09T15:09:30.197Z,7.52
2023-01-09T15:12:03.340Z,7.60
2023-01-09T15:14:34.085Z,7.56
2023-01-09T15:17:02.949Z,7.53
2023-01-09T15:19:31.848Z,7.42
2023-01-09T15:22:03.629Z,7.37
2023-01-09T15:24:34.228Z,7.31
2023-01-09T15:27:12.089Z,7.21
2023-01-09T15:29:39.789Z,7.34
2023-01-09T15:32:10.941Z,7.33
2023-01-09T15:34:38.659Z,7.22
2023-01-09T15:37:24.784Z,7.25
2023-01-09T15:39:52.840Z,7.30
2023-01-09T15:42:51.342Z,6.63
2023-01-09T15:45:24.580Z,7.12
2023-01-09T15:47:52.388Z,7.28
2023-01-09T15:50:27.037Z,7.26
2023-01-09T15:52:57.345Z,7.15
2023-01-09T15:55:28.952Z,7.21
2023-01-09T15:57:57.226Z,7.25
2023-01-09T16:00:39.306Z,7.27
2023-01-09T16:03:18.799Z,7.03
2023-01-09T16:05:49.310Z,7.24
2023-01-09T16:08:25.057Z,7.06
2023-01-09T16:10:54.450Z,7.13
2023-01-09T16:13:24.217Z,7.22
2023-01-09T16:15:52.865Z,7.38
2023-01-09T16:18:23.397Z,7.25
2023-01-09T16:21:02.780Z,7.11
2023-01-09T16:23:34.347Z,7.25
2023-01-09T16:26:07.473Z,7.21
2023-01-09T16:28:35.243Z,7.18
2023-01-09T16:31:08.063Z,7.16
2023-01-09T16:33:36.062Z,7.20
2023-01-09T16:36:05.268Z,7.17
2023-01-09T16:38:34.429Z,7.15
2023-01-09T16:41:22.720Z,7.21
2023-01-09T16:43:51.697Z,7.20
2023-01-09T16:46:20.989Z,7.33
2023-01-09T16:48:49.060Z,7.21
2023-01-09T16:51:18.465Z,7.07
2023-01-09T16:53:47.745Z,7.15
2023-01-09T16:56:19.833Z,7.11
2023-01-09T16:58:47.531Z,7.03
2023-01-09T17:01:15.802Z,6.99
2023-01-09T17:03:44.483Z,6.88
2023-01-09T17:06:16.841Z,7.02
2023-01-09T17:08:45.167Z,6.88
2023-01-09T17:11:21.175Z,6.97
2023-01-09T17:13:49.126Z,6.92
2023-01-09T17:16:17.990Z,6.70
2023-01-09T17:18:45.658Z,6.71
2023-01-09T17:21:17.768Z,6.84
2023-01-09T17:23:46.062Z,6.83
2023-01-09T17:26:41.953Z,6.92
2023-01-09T17:29:09.599Z,6.94
2023-01-09T17:31:38.700Z,7.02
2023-01-09T17:34:06.555Z,6.97
2023-01-09T17:36:35.071Z,7.04
2023-01-09T17:39:03.053Z,6.95
2023-01-09T17:41:33.623Z,6.93
2023-01-09T17:44:01.394Z,6.80
2023-01-09T17:46:32.292Z,6.65
2023-01-09T17:49:00.296Z,6.48
2023-01-09T17:51:29.259Z,6.70
2023-01-09T17:53:57.105Z,6.58
2023-01-09T17:56:27.761Z,6.53
2023-01-09T17:58:57.168Z,6.47
2023-01-09T18:01:24.843Z,6.53
2023-01-09T18:03:52.492Z,6.47
2023-01-09T18:06:22.414Z,6.53
2023-01-09T18:08:50.247Z,6.53
2023-01-09T18:11:19.343Z,6.39
2023-01-09T18:13:48.002Z,6.35
2023-01-09T18:16:18.571Z,6.19
2023-01-09T18:18:47.190Z,6.23
2023-01-09T18:21:17.723Z,6.24
2023-01-09T18:23:45.438Z,6.16
2023-01-09T18:26:20.244Z,5.81
2023-01-09T18:28:49.435Z,6.22
2023-01-09T18:31:22.622Z,6.17
2023-01-09T18:33:52.626Z,6.19
2023-01-09T18:36:21.759Z,6.23
2023-01-09T18:38:53.482Z,6.20
2023-01-09T18:41:21.475Z,6.25
2023-01-09T18:43:50.126Z,6.16
2023-01-09T18:46:23.829Z,6.15
2023-01-09T18:48:53.469Z,6.09
2023-01-09T18:51:21.768Z,6.19
2023-01-09T18:53:50.098Z,6.11
2023-01-09T18:56:19.701Z,5.61
2023-01-09T18:58:47.521Z,6.12
2023-01-09T19:01:15.973Z,5.84
2023-01-09T19:03:46.132Z,6.19
2023-01-09T19:06:13.877Z,6.14
2023-01-09T19:08:41.667Z,6.21
2023-01-09T19:11:09.615Z,6.21
2023-01-09T19:13:38.690Z,6.21
2023-01-09T19:16:08.762Z,6.24
2023-01-09T19:18:39.733Z,6.22
2023-01-09T19:21:13.654Z,6.19
2023-01-09T19:23:42.584Z,6.19
2023-01-09T19:26:16.783Z,6.15
2023-01-09T19:28:46.626Z,6.19
2023-01-09T19:31:14.519Z,6.17
2023-01-09T19:33:42.277Z,6.14
2023-01-09T19:36:10.261Z,6.23
2023-01-09T19:38:39.422Z,6.20
2023-01-09T19:41:09.433Z,6.20
2023-01-09T19:43:38.880Z,6.23
2023-01-09T19:46:09.256Z,5.93
2023-01-09T19:48:37.078Z,6.24
2023-01-09T19:51:07.236Z,6.18
2023-01-09T19:53:35.487Z,6.30
2023-01-09T19:56:13.197Z,6.32
2023-01-09T19:58:41.381Z,6.29
2023-01-09T20:01:10.836Z,6.27
2023-01-09T20:03:40.306Z,6.30
2023-01-09T20:06:13.864Z,6.37
2023-01-09T20:08:41.594Z,6.37
2023-01-09T20:11:10.720Z,6.27
2023-01-09T20:13:38.623Z,6.15
2023-01-09T20:16:07.551Z,6.42
2023-01-09T20:18:36.214Z,6.42
2023-01-09T20:21:04.018Z,6.54
2023-01-09T20:23:33.273Z,6.56
2023-01-09T20:26:02.163Z,6.50
2023-01-09T20:28:31.201Z,6.43
2023-01-09T20:30:59.000Z,6.55
2023-01-09T20:33:26.725Z,6.64
2023-01-09T20:35:54.335Z,6.69
2023-01-09T20:38:24.013Z,6.74
2023-01-09T20:40:55.755Z,6.74
2023-01-09T20:43:24.646Z,6.70
2023-01-09T20:45:53.681Z,6.79
2023-01-09T20:48:21.364Z,6.69
2023-01-09T20:50:49.052Z,6.66
2023-01-09T20:53:16.769Z,6.77
2023-01-09T20:55:44.385Z,6.83
2023-01-09T20:58:12.066Z,6.83
2023-01-09T21:00:39.724Z,6.84
2023-01-09T21:03:08.723Z,6.84
2023-01-09T21:05:41.032Z,6.77
2023-01-09T21:08:09.025Z,6.83
2023-01-09T21:10:36.669Z,6.89
2023-01-09T21:13:04.302Z,6.79
2023-01-09T21:15:31.944Z,6.82
2023-01-09T21:17:59.686Z,6.81
2023-01-09T21:20:28.739Z,6.81
2023-01-09T21:22:56.415Z,6.61
2023-01-09T21:25:24.166Z,6.81
2023-01-09T21:27:51.885Z,6.79
2023-01-09T21:30:19.603Z,6.81
2023-01-09T21:32:47.259Z,6.73
2023-01-09T21:35:15.790Z,6.75
2023-01-09T21:37:45.097Z,6.72
2023-01-09T21:40:16.019Z,6.64
2023-01-09T21:43:01.370Z,6.56
2023-01-09T21:45:46.873Z,6.51
2023-01-09T21:48:14.632Z,6.52
2023-01-09T21:50:42.445Z,6.49
2023-01-09T21:53:11.403Z,6.35
2023-01-09T21:55:39.109Z,6.42
2023-01-09T21:58:07.015Z,6.41
2023-01-09T22:00:34.717Z,6.41
2023-01-09T22:03:02.429Z,6.43
2023-01-09T22:05:30.155Z,6.40
2023-01-09T22:07:57.783Z,6.45
2023-01-09T22:10:26.983Z,6.47
2023-01-09T22:13:12.102Z,6.45
2023-01-09T22:15:41.210Z,6.48
2023-01-09T22:18:08.885Z,6.54
2023-01-09T22:20:37.201Z,6.48
2023-01-09T22:23:08.510Z,6.46
2023-01-09T22:25:41.880Z,6.51
2023-01-09T22:28:10.959Z,6.43
2023-01-09T22:30:40.695Z,6.52
2023-01-09T22:33:10.722Z,6.39
2023-01-09T22:35:38.779Z,6.46
2023-01-09T22:38:06.445Z,6.45
2023-01-09T22:40:34.144Z,6.44
2023-01-09T22:43:03.163Z,6.45
2023-01-09T22:45:30.914Z,6.43
2023-01-09T22:47:58.826Z,6.43
2023-01-09T22:50:26.694Z,6.52
2023-01-09T22:52:54.927Z,6.55
2023-01-09T22:55:22.569Z,6.48
2023-01-09T22:57:50.225Z,6.62
2023-01-09T23:00:19.881Z,6.61
2023-01-09T23:02:48.456Z,6.59
2023-01-09T23:05:16.264Z,6.53
2023-01-09T23:07:43.923Z,6.63
2023-01-09T23:10:12.170Z,6.40
2023-01-09T23:12:39.828Z,6.43
2023-01-09T23:15:09.940Z,6.43
2023-01-09T23:17:38.967Z,6.31
2023-01-09T23:20:07.343Z,6.42
2023-01-09T23:22:34.975Z,6.50
2023-01-09T23:25:02.606Z,6.61
2023-01-09T23:27:30.357Z,6.56
2023-01-09T23:29:57.968Z,6.63
2023-01-09T23:32:25.634Z,6.55
2023-01-09T23:34:55.372Z,6.56
2023-01-09T23:37:23.060Z,6.69
2023-01-09T23:39:50.898Z,6.56
2023-01-09T23:42:36.232Z,6.56
2023-01-09T23:45:04.155Z,6.57
2023-01-09T23:47:31.822Z,6.68
2023-01-09T23:50:00.877Z,6.56
2023-01-09T23:52:28.482Z,6.60
2023-01-09T23:54:56.644Z,6.59
2023-01-09T23:57:25.068Z,6.66
2023-01-09T23:59:52.686Z,6.61
